Time;durP1;ratioP1;P1;durP2;ratioP2;P2;SDS_P1;SDS_P2;PMS_P1;PMS_P2;Temp;Humidity;BMP_temperature;BMP_pressure;BME280_temperature;BME280_humidity;BME280_pressure;Samples;Min_cycle;Max_cycle;Signal;HPM_P1;HPM_P2
2021/11/04 00:00:00;;;;;;;57.97;33.20;;;;;;;9.84;63.84;100806.12;127309;1101;103029;-77
2021/11/04 00:02:28;;;;;;;58.30;33.03;;;;;;;9.85;63.84;100813.16;127376;1101;101385;-77
2021/11/04 00:04:56;;;;;;;53.60;31.43;;;;;;;9.89;64.26;100815.98;126411;1102;101596;-77
2021/11/04 00:07:25;;;;;;;59.20;33.27;;;;;;;9.93;64.03;100809.14;127253;1101;101120;-77
2021/11/04 00:09:53;;;;;;;60.03;33.63;;;;;;;9.95;63.98;100804.84;127408;1101;101536;-77
2021/11/04 00:12:21;;;;;;;57.10;31.83;;;;;;;9.99;64.53;100801.54;127262;1101;101807;-77
2021/11/04 00:14:49;;;;;;;60.33;34.77;;;;;;;10.00;64.37;100792.86;127340;1100;101763;-77
2021/11/04 00:17:17;;;;;;;61.00;34.87;;;;;;;10.03;64.12;100797.31;127193;1101;101852;-77
2021/11/04 00:19:45;;;;;;;63.63;38.17;;;;;;;10.00;64.03;100792.86;127356;1101;101639;-77
2021/11/04 00:22:13;;;;;;;79.13;43.27;;;;;;;9.96;63.89;100790.03;127382;1101;101892;-77
2021/11/04 00:24:41;;;;;;;73.33;42.37;;;;;;;9.92;64.19;100788.10;127378;1101;102088;-77
2021/11/04 00:27:09;;;;;;;65.70;35.27;;;;;;;9.89;64.03;100788.85;127253;1102;101253;-78
2021/11/04 00:29:37;;;;;;;61.10;32.83;;;;;;;9.90;64.41;100790.66;127312;1101;101656;-78
2021/11/04 00:32:06;;;;;;;57.87;31.63;;;;;;;9.92;64.32;100788.98;127329;1101;101589;-77
2021/11/04 00:34:34;;;;;;;56.33;31.37;;;;;;;9.96;64.68;100800.52;127387;1101;101547;-78
2021/11/04 00:37:02;;;;;;;67.30;36.17;;;;;;;9.97;64.85;100786.56;126357;1102;103083;-77
2021/11/04 00:39:29;;;;;;;62.53;37.17;;;;;;;9.96;64.90;100785.68;126312;1105;101808;-77
2021/11/04 00:42:00;;;;;;;65.30;36.47;;;;;;;9.97;64.85;100779.61;126354;1105;102039;-77
2021/11/04 00:44:27;;;;;;;59.53;33.27;;;;;;;9.97;64.86;100782.23;126341;1104;101766;-77
2021/11/04 00:47:04;;;;;;;55.87;31.23;;;;;;;9.99;64.71;100775.32;126326;1105;101626;-77
2021/11/04 00:49:33;;;;;;;58.17;32.77;;;;;;;10.01;64.90;100773.65;126283;1105;118985;-77
2021/11/04 00:52:01;;;;;;;69.70;39.70;;;;;;;10.02;64.72;100778.08;126270;1104;101600;-77
2021/11/04 00:54:28;;;;;;;61.13;35.13;;;;;;;10.02;64.80;100775.45;126356;1104;101724;-77
2021/11/04 00:56:56;;;;;;;54.33;30.50;;;;;;;10.02;65.05;100774.53;126277;1105;101182;-77
2021/11/04 00:59:24;;;;;;;55.00;31.43;;;;;;;10.02;65.00;100769.29;126290;1104;101911;-77
2021/11/04 01:01:52;;;;;;;57.00;31.77;;;;;;;10.00;64.71;100761.39;126309;1105;102001;-77
2021/11/04 01:04:20;;;;;;;59.40;32.50;;;;;;;9.99;65.35;100769.19;126312;1105;101856;-77
2021/11/04 01:06:48;;;;;;;57.77;30.97;;;;;;;9.96;64.77;100779.55;126357;1105;101529;-77
2021/11/04 01:09:16;;;;;;;53.10;30.93;;;;;;;9.94;65.37;100779.48;126302;1104;101858;-77
2021/11/04 01:11:44;;;;;;;53.10;28.70;;;;;;;9.96;64.78;100775.19;127135;1101;101754;-78
2021/11/04 01:14:13;;;;;;;50.97;28.40;;;;;;;9.96;65.00;100783.05;127380;1101;102008;-78
2021/11/04 01:16:41;;;;;;;50.60;27.57;;;;;;;10.00;65.53;100776.20;127384;1101;101591;-77
2021/11/04 01:19:10;;;;;;;53.57;28.07;;;;;;;10.01;65.59;100788.50;127201;1101;101497;-77
2021/11/04 01:21:38;;;;;;;50.33;28.07;;;;;;;10.02;65.42;100793.80;127277;1101;101874;-77
2021/11/04 01:24:06;;;;;;;48.40;27.60;;;;;;;10.04;65.74;100792.13;127326;1101;101560;-77
2021/11/04 01:26:35;;;;;;;51.60;28.43;;;;;;;10.07;65.76;100789.64;126397;1102;101988;-77
2021/11/04 01:29:03;;;;;;;48.57;27.40;;;;;;;10.11;65.13;100789.77;127151;1101;101949;-77
2021/11/04 01:31:30;;;;;;;49.33;28.00;;;;;;;10.13;65.25;100796.88;127357;1101;101543;-77
2021/11/04 01:33:58;;;;;;;50.07;28.40;;;;;;;10.17;65.80;100808.39;127372;1101;101664;-77
2021/11/04 01:36:26;;;;;;;51.10;27.77;;;;;;;10.18;65.37;100811.08;126364;1101;101594;-77
2021/11/04 01:38:54;;;;;;;45.10;26.07;;;;;;;10.23;65.34;100806.02;127247;1100;101987;-78
2021/11/04 01:41:22;;;;;;;52.07;28.73;;;;;;;10.27;65.75;100818.45;127341;1101;101938;-77
2021/11/04 01:43:50;;;;;;;51.57;29.07;;;;;;;10.28;65.69;100817.59;127334;1101;101517;-77
2021/11/04 01:46:21;;;;;;;57.23;31.87;;;;;;;10.31;65.26;100829.95;127381;1101;102102;-76
2021/11/04 01:48:50;;;;;;;65.07;36.50;;;;;;;10.27;65.63;100834.18;127227;1101;101367;-77
2021/11/04 01:51:20;;;;;;;66.40;39.03;;;;;;;10.14;65.01;100826.61;126365;1102;103864;-77
2021/11/04 01:53:48;;;;;;;64.70;37.30;;;;;;;10.00;65.30;100821.69;127342;1101;101855;-77
2021/11/04 01:56:16;;;;;;;75.00;42.10;;;;;;;9.87;65.54;100824.59;127354;1101;101529;-77
2021/11/04 01:58:44;;;;;;;70.10;41.00;;;;;;;9.80;65.17;100825.14;127128;1102;101590;-78
2021/11/04 02:01:17;;;;;;;61.80;37.33;;;;;;;9.76;65.37;100833.72;126304;1102;101669;-77
2021/11/04 02:03:56;;;;;;;66.30;38.07;;;;;;;9.73;65.19;100839.71;126305;1101;102780;-77
2021/11/04 02:06:32;;;;;;;67.57;38.00;;;;;;;9.70;65.75;100839.58;127188;1101;101910;-77
2021/11/04 02:09:08;;;;;;;60.20;36.50;;;;;;;9.64;65.83;100832.33;126267;1102;101269;-77
2021/11/04 02:11:39;;;;;;;63.63;36.77;;;;;;;9.61;65.17;100834.80;127306;1101;101529;-77
2021/11/04 02:14:14;;;;;;;69.50;38.83;;;;;;;9.61;66.01;100840.05;127397;1101;101557;-77
2021/11/04 02:16:48;;;;;;;63.80;34.67;;;;;;;9.64;65.73;100834.06;127334;1101;102045;-77
2021/11/04 02:19:25;;;;;;;63.73;34.87;;;;;;;9.69;65.43;100846.55;126282;1102;102073;-77
2021/11/04 02:21:58;;;;;;;62.67;34.83;;;;;;;9.74;65.73;100845.84;127359;1101;101547;-77
2021/11/04 02:24:36;;;;;;;65.00;37.07;;;;;;;9.71;65.63;100839.64;127373;1101;101548;-77
2021/11/04 02:27:06;;;;;;;64.20;35.87;;;;;;;9.67;65.42;100842.94;126332;1102;102104;-77
2021/11/04 02:29:38;;;;;;;67.17;39.50;;;;;;;9.69;65.57;100854.41;127251;1101;102044;-77
2021/11/04 02:32:07;;;;;;;68.57;39.37;;;;;;;9.71;65.58;100857.10;127296;1101;101807;-77
2021/11/04 02:34:36;;;;;;;69.80;39.43;;;;;;;9.70;65.99;100865.78;127358;1101;101542;-77
2021/11/04 02:37:05;;;;;;;70.77;39.50;;;;;;;9.71;65.66;100870.20;127328;1101;101585;-76
2021/11/04 02:39:34;;;;;;;66.00;37.40;;;;;;;9.72;65.60;100861.49;127364;1101;101488;-77
2021/11/04 02:42:06;;;;;;;65.90;37.80;;;;;;;9.74;66.22;100859.86;127273;1101;102999;-77
2021/11/04 02:44:35;;;;;;;62.87;35.23;;;;;;;9.76;65.68;100854.69;127330;1101;101798;-77
2021/11/04 02:47:17;;;;;;;58.40;33.03;;;;;;;9.80;66.25;100853.98;127348;1101;101581;-77
2021/11/04 02:49:51;;;;;;;59.90;32.93;;;;;;;9.83;65.80;100857.66;127312;1101;101536;-77
2021/11/04 02:52:20;;;;;;;58.80;32.17;;;;;;;9.86;66.05;100862.11;127309;1101;101529;-77
2021/11/04 02:54:54;;;;;;;59.50;32.60;;;;;;;9.88;66.42;100865.72;126369;1102;101913;-77
2021/11/04 02:57:23;;;;;;;;;;;;;;;9.91;65.93;100860.61;127468;1101;101875;-77
2021/11/04 02:59:53;;;;;;;51.83;28.67;;;;;;;9.93;65.99;100869.43;126344;1104;101586;-77
2021/11/04 03:02:23;;;;;;;54.27;29.10;;;;;;;9.97;66.26;100865.20;127316;1100;113267;-77
2021/11/04 03:04:53;;;;;;;54.47;27.40;;;;;;;9.99;66.64;100861.84;127347;1101;101498;-77
2021/11/04 03:07:24;;;;;;;51.83;28.50;;;;;;;10.05;66.42;100871.67;127336;1101;101877;-77
2021/11/04 03:09:53;;;;;;;47.37;26.50;;;;;;;10.09;66.23;100868.37;126357;1102;101568;-77
2021/11/04 03:12:21;;;;;;;48.40;27.07;;;;;;;10.12;66.24;100860.63;127241;1100;101606;-77
2021/11/04 03:14:51;;;;;;;47.33;25.23;;;;;;;10.15;66.48;100860.77;127340;1101;101549;-77
2021/11/04 03:17:20;;;;;;;50.33;28.13;;;;;;;10.16;66.69;100857.33;127429;1101;101583;-77
2021/11/04 03:19:48;;;;;;;49.73;27.33;;;;;;;10.17;66.63;100863.45;127352;1101;102902;-77
2021/11/04 03:22:17;;;;;;;46.83;25.90;;;;;;;10.17;66.83;100863.45;127248;1100;101271;-77
2021/11/04 03:24:45;;;;;;;45.80;26.20;;;;;;;10.18;66.37;100871.39;127379;1101;101596;-77
2021/11/04 03:27:14;;;;;;;48.93;27.70;;;;;;;10.20;66.54;100869.72;127374;1101;101605;-77
2021/11/04 03:29:44;;;;;;;47.20;24.73;;;;;;;10.25;67.04;100868.21;127354;1102;101559;-77
2021/11/04 03:32:16;;;;;;;53.00;26.73;;;;;;;10.29;66.73;100882.34;127207;1101;103306;-77
2021/11/04 03:34:46;;;;;;;45.00;25.67;;;;;;;10.31;66.71;100880.67;127379;1100;101257;-77
2021/11/04 03:37:16;;;;;;;50.73;26.57;;;;;;;10.32;66.74;100879.86;127359;1101;101601;-77
2021/11/04 03:39:44;;;;;;;49.43;26.73;;;;;;;10.34;67.00;100882.58;127359;1101;101615;-77
2021/11/04 03:42:13;;;;;;;50.00;28.30;;;;;;;10.35;66.50;100885.27;127183;1100;101337;-77
2021/11/04 03:44:42;;;;;;;50.67;27.43;;;;;;;10.36;67.16;100881.82;127361;1101;102453;-78
2021/11/04 03:47:12;;;;;;;47.77;27.70;;;;;;;10.38;67.00;100876.64;127317;1101;101520;-78
2021/11/04 03:49:41;;;;;;;47.70;26.77;;;;;;;10.38;67.13;100863.52;127235;1100;102108;-77
2021/11/04 03:52:10;;;;;;;47.27;26.13;;;;;;;10.35;66.54;100858.15;127251;1101;101517;-77
2021/11/04 03:54:38;;;;;;;48.27;26.50;;;;;;;10.31;66.71;100859.69;127333;1101;101424;-77
2021/11/04 03:57:07;;;;;;;44.43;26.17;;;;;;;10.31;66.58;100861.42;127425;1102;101900;-77
2021/11/04 03:59:35;;;;;;;44.60;25.40;;;;;;;10.29;67.19;100863.09;127169;1101;102371;-78
2021/11/04 04:02:03;;;;;;;47.53;26.50;;;;;;;10.28;66.83;100859.55;127179;1101;101603;-77
2021/11/04 04:04:31;;;;;;;43.73;24.30;;;;;;;10.28;67.27;100846.44;127374;1101;101959;-77
2021/11/04 04:06:58;;;;;;;47.33;26.20;;;;;;;10.28;66.93;100840.31;127328;1102;101557;-78
2021/11/04 04:09:27;;;;;;;46.50;25.37;;;;;;;10.28;67.36;100835.95;126963;1100;103028;-78
2021/11/04 04:11:55;;;;;;;44.73;23.63;;;;;;;10.28;67.26;100843.82;127193;1102;101359;-78
2021/11/04 04:14:23;;;;;;;47.50;25.20;;;;;;;10.30;67.17;100849.12;127271;1101;101610;-78
2021/11/04 04:16:51;;;;;;;46.67;25.77;;;;;;;10.31;67.39;100851.82;127386;1101;101504;-77
2021/11/04 04:19:19;;;;;;;41.97;23.47;;;;;;;10.37;67.42;100851.23;126349;1102;101612;-77
2021/11/04 04:21:47;;;;;;;43.43;24.00;;;;;;;10.40;67.07;100841.75;127256;1101;102111;-78
2021/11/04 04:24:15;;;;;;;41.60;23.37;;;;;;;10.41;66.98;100842.67;127329;1101;101236;-77
2021/11/04 04:26:43;;;;;;;43.87;24.40;;;;;;;10.41;67.59;100833.06;127295;1101;101628;-77
2021/11/04 04:29:11;;;;;;;38.90;21.73;;;;;;;10.39;67.56;100834.73;127341;1100;101514;-78
2021/11/04 04:31:39;;;;;;;42.87;24.57;;;;;;;10.38;67.58;100837.30;127337;1101;101528;-77
2021/11/04 04:34:06;;;;;;;44.00;24.03;;;;;;;10.35;68.09;100832.80;127345;1101;101929;-77
2021/11/04 04:36:34;;;;;;;43.00;23.47;;;;;;;10.34;67.69;100828.38;127340;1101;101377;-77
2021/11/04 04:39:02;;;;;;;41.67;22.83;;;;;;;10.33;67.54;100834.48;127313;1100;101550;-78
2021/11/04 04:41:30;;;;;;;42.20;22.87;;;;;;;10.32;67.91;100829.13;127272;1101;101434;-77
2021/11/04 04:43:58;;;;;;;42.30;23.37;;;;;;;10.32;67.93;100834.38;127221;1101;102060;-77
2021/11/04 04:46:26;;;;;;;38.17;21.70;;;;;;;10.34;67.50;100841.49;127336;1100;102984;-77
2021/11/04 04:48:54;;;;;;;40.03;21.93;;;;;;;10.38;68.20;100838.17;126328;1102;101601;-77
2021/11/04 04:51:22;;;;;;;42.73;22.40;;;;;;;10.42;68.05;100839.19;127349;1100;101621;-77
2021/11/04 04:53:50;;;;;;;36.97;21.63;;;;;;;10.45;67.83;100833.19;127196;1101;101855;-77
2021/11/04 04:56:18;;;;;;;38.73;22.03;;;;;;;10.45;68.15;100834.07;127327;1101;101500;-77
2021/11/04 04:58:46;;;;;;;41.57;22.13;;;;;;;10.48;68.08;100835.94;127385;1101;103181;-77
2021/11/04 05:01:14;;;;;;;41.30;23.67;;;;;;;10.48;68.41;100830.69;126376;1101;101730;-77
2021/11/04 05:03:44;;;;;;;41.43;23.47;;;;;;;10.48;68.03;100828.95;127229;1101;101524;-77
2021/11/04 05:06:16;;;;;;;39.07;21.57;;;;;;;10.48;68.34;100838.56;127307;1101;101591;-77
2021/11/04 05:08:48;;;;;;;42.33;23.20;;;;;;;10.48;68.33;100833.31;126289;1102;101605;-77
2021/11/04 05:11:19;;;;;;;39.77;21.87;;;;;;;10.51;67.93;100836.95;127320;1101;103056;-77
2021/11/04 05:13:48;;;;;;;40.97;22.23;;;;;;;10.53;68.76;100829.14;127153;1101;103109;-77
2021/11/04 05:16:16;;;;;;;40.40;22.63;;;;;;;10.56;68.71;100839.77;127062;1100;101571;-77
2021/11/04 05:18:46;;;;;;;40.70;22.60;;;;;;;10.57;68.25;100841.56;126377;1101;102074;-77
2021/11/04 05:21:13;;;;;;;36.47;21.90;;;;;;;10.57;68.86;100839.83;127259;1101;101563;-77
2021/11/04 05:23:41;;;;;;;40.67;23.70;;;;;;;10.56;68.22;100843.27;126702;1101;101961;-77
2021/11/04 05:26:10;;;;;;;40.20;23.30;;;;;;;10.56;68.22;100847.63;126325;1102;102051;-79
2021/11/04 05:28:41;;;;;;;42.50;23.50;;;;;;;10.55;68.79;100852.00;126684;1101;101659;-78
2021/11/04 05:31:10;;;;;;;44.37;24.40;;;;;;;10.57;68.78;100854.69;126835;1101;101527;-77
2021/11/04 05:33:38;;;;;;;44.20;24.33;;;;;;;10.58;68.79;100856.45;126585;1101;101398;-77
2021/11/04 05:36:08;;;;;;;42.87;23.37;;;;;;;10.60;68.43;100860.06;126715;1101;101991;-78
2021/11/04 05:38:36;;;;;;;42.83;24.87;;;;;;;10.64;68.58;100866.32;127081;1101;101591;-77
2021/11/04 05:41:03;;;;;;;42.07;23.60;;;;;;;10.67;68.48;100856.84;127269;1101;101569;-77
2021/11/04 05:43:31;;;;;;;43.80;23.93;;;;;;;10.73;68.73;100862.34;127160;1101;101935;-77
2021/11/04 05:46:00;;;;;;;42.60;24.60;;;;;;;10.78;68.31;100858.19;127225;1101;101510;-77
2021/11/04 05:48:28;;;;;;;43.30;25.47;;;;;;;10.86;68.94;100855.88;127281;1101;101911;-77
2021/11/04 05:50:56;;;;;;;44.90;25.37;;;;;;;10.90;68.77;100851.63;127225;1101;101831;-77
2021/11/04 05:53:24;;;;;;;44.00;25.73;;;;;;;10.94;69.15;100850.94;127164;1101;101594;-77
2021/11/04 05:55:53;;;;;;;44.63;26.17;;;;;;;10.95;69.00;100851.00;127101;1101;101555;-77
2021/11/04 05:58:21;;;;;;;42.37;24.40;;;;;;;10.99;68.94;100845.87;127140;1101;101571;-77
2021/11/04 06:00:51;;;;;;;45.97;27.10;;;;;;;11.02;69.31;100846.87;126563;1101;101910;-77
2021/11/04 06:03:19;;;;;;;45.83;26.03;;;;;;;11.05;69.58;100853.98;126948;1101;101568;-77
2021/11/04 06:05:50;;;;;;;46.47;26.80;;;;;;;11.10;69.27;100857.68;126837;1102;101581;-77
2021/11/04 06:08:18;;;;;;;44.43;25.80;;;;;;;11.18;69.35;100861.49;126970;1101;101744;-77
2021/11/04 06:10:49;;;;;;;48.77;27.33;;;;;;;11.27;69.44;100863.59;126921;1101;101554;-78
2021/11/04 06:13:17;;;;;;;44.30;26.27;;;;;;;11.36;69.16;100866.58;126694;1101;101922;-78
2021/11/04 06:15:45;;;;;;;44.17;25.67;;;;;;;11.46;69.59;100866.06;126205;1102;102074;-78
2021/11/04 06:18:13;;;;;;;48.37;26.73;;;;;;;11.56;69.44;100861.16;126819;1102;101603;-78
2021/11/04 06:20:41;;;;;;;44.77;25.93;;;;;;;11.67;69.47;100862.45;126212;1102;101667;-77
2021/11/04 06:23:11;;;;;;;43.70;26.37;;;;;;;11.81;69.32;100873.47;126734;1101;101645;-77
2021/11/04 06:25:42;;;;;;;44.10;26.87;;;;;;;11.95;69.42;100867.04;126830;1101;101922;-78
2021/11/04 06:28:12;;;;;;;47.73;25.57;;;;;;;12.08;69.82;100865.73;126268;1102;101866;-78
2021/11/04 06:30:41;;;;;;;44.97;25.67;;;;;;;12.19;69.44;100856.47;126325;1101;101164;-77
2021/11/04 06:33:11;;;;;;;44.57;25.53;;;;;;;12.31;69.64;100856.02;126312;1102;101344;-77
2021/11/04 06:35:40;;;;;;;46.03;26.93;;;;;;;12.45;69.71;100876.63;126745;1101;101671;-77
2021/11/04 06:38:11;;;;;;;48.67;27.90;;;;;;;12.54;69.79;100874.30;126722;1101;103079;-77
2021/11/04 06:40:50;;;;;;;47.70;26.30;;;;;;;12.65;69.44;100866.77;126259;1102;101671;-77
2021/11/04 06:43:21;;;;;;;46.90;26.87;;;;;;;12.75;69.79;100868.87;126640;1102;101925;-77
2021/11/04 06:45:51;;;;;;;44.43;25.63;;;;;;;12.86;69.56;100866.59;126310;1102;101751;-77
2021/11/04 06:48:26;;;;;;;44.97;27.33;;;;;;;12.87;69.52;100864.00;126326;1102;102176;-78
2021/11/04 06:50:59;;;;;;;44.20;25.83;;;;;;;12.90;70.07;100857.91;126524;1101;102003;-77
2021/11/04 06:53:30;;;;;;;38.20;22.57;;;;;;;12.94;69.92;100846.64;126286;1102;101869;-77
2021/11/04 06:56:05;;;;;;;43.37;23.70;;;;;;;12.97;69.60;100852.01;126261;1102;102186;-77
2021/11/04 06:58:37;;;;;;;39.10;23.50;;;;;;;13.04;69.56;100845.19;126776;1102;102063;-78
2021/11/04 07:01:14;;;;;;;42.43;22.57;;;;;;;13.13;69.57;100837.56;126914;1101;101982;-77
2021/11/04 07:03:55;;;;;;;40.35;21.82;;;;;;;13.20;69.87;100833.37;126305;1102;102543;-77
2021/11/04 07:06:29;;;;;;;37.37;22.13;;;;;;;13.28;70.52;100829.24;126268;1102;101633;-77
2021/11/04 07:09:06;;;;;;;37.93;21.43;;;;;;;13.34;69.54;100832.09;126871;1101;101193;-77
2021/11/04 07:11:38;;;;;;;39.97;22.03;;;;;;;13.40;70.48;100826.09;126304;1102;101634;-77
2021/11/04 07:14:12;;;;;;;37.23;22.33;;;;;;;13.47;69.88;100817.53;126316;1102;101580;-78
2021/11/04 07:16:43;;;;;;;41.40;23.17;;;;;;;13.52;69.63;100805.36;126327;1102;102378;-79
2021/11/04 07:19:19;;;;;;;42.65;22.37;;;;;;;13.57;69.45;100819.59;126611;1101;101685;-77
2021/11/04 07:21:58;;;;;;;38.65;22.02;;;;;;;13.62;70.44;100820.60;126353;1101;101703;-77
2021/11/04 07:24:38;;;;;;;39.27;22.40;;;;;;;13.70;70.26;100833.09;126631;1101;101557;-76
2021/11/04 07:27:17;;;;;;;39.70;22.30;;;;;;;13.74;69.37;100827.06;126508;1102;101966;-77
2021/11/04 07:29:58;;;;;;;39.57;22.63;;;;;;;13.78;69.96;100818.40;126318;1102;102805;-78
2021/11/04 07:32:29;;;;;;;40.87;21.13;;;;;;;13.82;69.82;100813.25;126248;1102;101832;-77
2021/11/04 07:34:58;;;;;;;40.10;22.07;;;;;;;13.88;70.08;100811.62;126585;1101;101613;-77
2021/11/04 07:37:35;;;;;;;37.67;22.07;;;;;;;13.93;70.34;100818.82;126593;1101;101909;-78
2021/11/04 07:40:07;;;;;;;43.07;22.07;;;;;;;14.02;69.50;100818.16;126550;1101;101982;-77
2021/11/04 07:45:23;;;;;;;30.50;17.70;;;;;;;14.19;70.25;100822.16;126431;1102;101945;-77
2021/11/04 07:47:53;;;;;;;31.07;16.53;;;;;;;14.25;69.44;100826.69;126285;1102;101762;-78
2021/11/04 07:50:24;;;;;;;30.43;16.27;;;;;;;14.36;70.09;100841.04;126646;1101;101631;-78
2021/11/04 07:52:54;;;;;;;28.33;15.10;;;;;;;14.48;69.82;100835.19;126348;1102;102074;-76
2021/11/04 07:55:24;;;;;;;26.60;14.30;;;;;;;14.57;69.91;100845.10;126674;1101;103110;-76
2021/11/04 07:57:54;;;;;;;27.03;15.10;;;;;;;14.65;68.85;100842.69;126298;1102;101929;-77
2021/11/04 08:00:30;;;;;;;25.70;14.13;;;;;;;14.74;69.30;100849.08;126743;1101;101768;-76
2021/11/04 08:03:00;;;;;;;26.20;14.40;;;;;;;14.84;69.56;100847.54;126319;1102;101774;-77
2021/11/04 08:05:34;;;;;;;27.20;13.83;;;;;;;14.94;68.62;100846.00;126372;1102;101901;-78
2021/11/04 08:08:28;;;;;;;26.95;13.40;;;;;;;15.02;69.32;100841.80;126278;1102;102102;-78
2021/11/04 08:10:58;;;;;;;27.43;14.30;;;;;;;15.08;68.41;100844.59;126316;1102;102250;-76
2021/11/04 08:13:30;;;;;;;24.80;14.17;;;;;;;15.15;68.08;100840.33;127138;1101;102043;-77
2021/11/04 08:16:01;;;;;;;25.87;13.37;;;;;;;15.22;68.32;100839.62;126737;1102;101628;-77
2021/11/04 08:18:33;;;;;;;25.10;12.73;;;;;;;15.25;68.69;100836.13;126304;1102;101524;-78
2021/11/04 08:21:07;;;;;;;25.30;12.67;;;;;;;15.32;67.86;100835.41;126630;1101;102265;-76
2021/11/04 08:26:20;;;;;;;22.00;11.87;;;;;;;15.36;68.08;100833.72;126357;1101;101876;-77
2021/11/04 08:28:52;;;;;;;21.30;11.80;;;;;;;15.37;68.88;100823.17;126263;1102;101633;-77
2021/11/04 08:31:20;;;;;;;21.07;11.17;;;;;;;15.36;67.80;100824.02;126298;1102;101268;-76
2021/11/04 08:33:50;;;;;;;20.47;11.43;;;;;;;15.36;68.06;100823.14;126312;1102;102852;-77
2021/11/04 08:36:20;;;;;;;20.47;10.30;;;;;;;15.35;67.65;100822.27;126256;1105;102217;-76
2021/11/04 08:38:50;;;;;;;20.73;11.20;;;;;;;15.35;67.74;100818.70;126864;1101;101606;-76
2021/11/04 08:41:19;;;;;;;19.10;9.53;;;;;;;15.35;67.56;100826.63;126348;1102;101279;-77
2021/11/04 08:43:49;;;;;;;21.47;10.87;;;;;;;15.33;68.65;100826.59;126854;1101;101647;-77
2021/11/04 08:46:22;;;;;;;20.05;10.20;;;;;;;15.33;68.59;100823.95;126342;1102;102407;-77
2021/11/04 08:48:51;;;;;;;19.87;10.33;;;;;;;15.30;68.58;100815.95;126288;1102;101862;-77
2021/11/04 08:51:20;;;;;;;21.30;10.57;;;;;;;15.27;68.48;100819.45;126304;1103;101561;-77
2021/11/04 08:53:58;;;;;;;21.83;10.80;;;;;;;15.23;68.89;100800.84;126691;1102;101503;-77
2021/11/04 08:56:31;;;;;;;19.00;10.20;;;;;;;15.23;68.06;100796.44;126337;1102;101658;-77
2021/11/04 08:59:02;;;;;;;22.27;10.93;;;;;;;15.19;69.14;100798.98;126520;1101;103027;-75
2021/11/04 09:01:36;;;;;;;20.63;9.97;;;;;;;15.18;68.20;100802.51;126823;1101;101860;-77
2021/11/04 09:04:10;;;;;;;20.73;10.80;;;;;;;15.15;68.26;100805.08;127055;1101;101890;-77
2021/11/04 09:06:41;;;;;;;21.17;10.67;;;;;;;15.08;68.56;100807.59;126366;1102;101677;-77
2021/11/04 09:09:13;;;;;;;21.20;10.20;;;;;;;15.04;68.97;100797.80;126280;1102;101949;-77
2021/11/04 09:11:45;;;;;;;22.00;11.07;;;;;;;15.04;68.52;100795.16;126362;1103;102251;-77
2021/11/04 09:14:16;;;;;;;20.17;9.97;;;;;;;15.07;68.45;100789.94;126364;1102;101757;-77
2021/11/04 09:16:46;;;;;;;20.63;11.33;;;;;;;15.09;69.07;100782.05;127074;1101;101664;-76
2021/11/04 09:19:19;;;;;;;22.07;11.40;;;;;;;15.09;69.31;100796.14;126303;1102;101639;-78
2021/11/04 09:21:50;;;;;;;25.37;11.60;;;;;;;15.07;69.69;100797.86;126808;1102;101639;-76
2021/11/04 09:24:23;;;;;;;24.93;12.63;;;;;;;15.02;69.37;100794.24;126313;1101;102683;-77
2021/11/04 09:26:53;;;;;;;25.93;11.83;;;;;;;15.02;69.01;100786.31;127106;1101;101553;-77
2021/11/04 09:29:24;;;;;;;22.70;11.67;;;;;;;15.01;69.51;100788.92;126889;1099;101968;-77
2021/11/04 09:31:55;;;;;;;23.00;11.90;;;;;;;14.98;70.17;100787.09;126689;1102;101612;-78
2021/11/04 09:34:26;;;;;;;23.43;12.80;;;;;;;14.94;70.36;100786.98;126337;1102;101210;-77
2021/11/04 09:36:58;;;;;;;25.63;12.37;;;;;;;14.90;69.63;100786.91;127257;1101;101907;-77
2021/11/04 09:39:28;;;;;;;24.37;11.73;;;;;;;14.90;69.61;100786.03;126272;1101;101541;-76
2021/11/04 09:41:57;;;;;;;25.63;12.17;;;;;;;14.90;69.71;100791.31;127316;1100;102872;-77
2021/11/04 09:44:29;;;;;;;25.00;12.20;;;;;;;14.87;69.49;100793.89;126349;1102;101336;-76
2021/11/04 09:46:58;;;;;;;21.70;10.57;;;;;;;14.85;70.70;100799.14;127131;1101;101536;-77
2021/11/04 09:49:36;;;;;;;23.77;11.50;;;;;;;14.85;69.99;100796.50;126562;1101;101931;-78
2021/11/04 09:52:10;;;;;;;22.17;11.30;;;;;;;14.84;70.69;100785.89;126960;1101;101881;-78
2021/11/04 09:54:39;;;;;;;25.50;11.77;;;;;;;14.85;69.77;100779.73;126314;1102;101677;-77
2021/11/04 09:57:15;;;;;;;26.17;11.83;;;;;;;14.87;70.00;100792.13;126329;1102;101736;-76
2021/11/04 09:59:48;;;;;;;25.70;12.50;;;;;;;14.86;70.16;100782.41;126863;1101;101616;-77
2021/11/04 10:02:22;;;;;;;25.90;12.30;;;;;;;14.83;70.04;100789.38;126319;1102;103148;-76
2021/11/04 10:04:54;;;;;;;23.93;13.07;;;;;;;14.80;71.42;100794.59;127014;1101;101558;-77
2021/11/04 10:07:39;;;;;;;26.40;12.93;;;;;;;14.76;71.63;100792.73;126329;1102;101713;-77
2021/11/04 10:10:09;;;;;;;23.93;12.40;;;;;;;14.71;71.91;100785.61;126352;1102;102042;-76
2021/11/04 10:12:54;;;;;;;27.03;13.10;;;;;;;14.72;71.87;100781.20;126686;1101;101689;-76
2021/11/04 10:15:24;;;;;;;26.93;13.73;;;;;;;14.70;71.71;100783.81;126348;1102;102898;-76
2021/11/04 10:17:53;;;;;;;27.23;13.93;;;;;;;14.66;72.00;100781.98;126291;1102;102022;-77
2021/11/04 10:20:23;;;;;;;25.10;12.63;;;;;;;14.65;71.30;100772.26;126708;1102;101731;-76
2021/11/04 10:23:03;;;;;;;25.63;13.77;;;;;;;14.65;71.93;100776.66;126300;1102;101766;-76
2021/11/04 10:25:35;;;;;;;24.33;13.50;;;;;;;14.66;71.84;100768.77;127291;1101;101618;-77
2021/11/04 10:28:24;;;;;;;27.63;13.87;;;;;;;14.69;71.45;100771.48;126369;1102;101828;-77
2021/11/04 10:30:55;;;;;;;24.40;13.13;;;;;;;14.74;72.24;100768.95;126405;1102;102080;-78
2021/11/04 10:33:31;;;;;;;27.13;14.13;;;;;;;14.76;71.84;100766.31;126369;1102;101237;-77
2021/11/04 10:36:07;;;;;;;26.60;13.77;;;;;;;14.76;72.30;100756.66;126296;1102;101859;-78
2021/11/04 10:38:45;;;;;;;28.77;15.33;;;;;;;14.77;72.50;100752.26;126846;1101;101704;-78
2021/11/04 10:41:22;;;;;;;26.13;14.90;;;;;;;14.82;72.98;100729.47;126826;1101;103152;-76
2021/11/04 10:43:54;;;;;;;27.57;14.60;;;;;;;14.84;72.24;100722.49;126266;1102;101943;-77
2021/11/04 10:46:30;;;;;;;25.67;14.30;;;;;;;14.85;73.35;100718.97;126643;1102;101778;-78
2021/11/04 10:49:01;;;;;;;33.77;18.50;;;;;;;14.84;73.35;100706.64;126326;1102;101746;-79
2021/11/04 10:51:32;;;;;;;32.80;17.80;;;;;;;14.83;73.83;100715.41;126385;1102;101768;-77
2021/11/04 10:54:03;;;;;;;32.90;18.17;;;;;;;14.85;73.65;100697.84;126370;1102;102802;-76
2021/11/04 10:56:35;;;;;;;35.33;18.53;;;;;;;14.85;73.82;100692.55;126297;1102;101286;-76
2021/11/04 10:59:08;;;;;;;37.60;18.83;;;;;;;14.86;74.02;100681.14;126661;1101;101789;-76
2021/11/04 11:01:38;;;;;;;34.43;18.63;;;;;;;14.89;76.06;100662.70;126258;1102;101956;-77
2021/11/04 11:04:09;;;;;;;36.17;18.57;;;;;;;15.01;75.09;100646.22;126342;1102;101776;-77
2021/11/04 11:06:41;;;;;;;32.70;18.03;;;;;;;15.06;74.95;100637.50;126371;1102;103086;-77
2021/11/04 11:09:17;;;;;;;33.57;16.73;;;;;;;15.12;74.88;100639.39;126323;1101;102042;-77
2021/11/04 11:11:48;;;;;;;35.60;17.63;;;;;;;15.16;75.82;100640.33;126299;1102;101661;-77
2021/11/04 11:14:18;;;;;;;29.53;16.20;;;;;;;15.19;76.56;100619.23;126279;1102;101727;-77
2021/11/04 11:16:50;;;;;;;33.13;17.30;;;;;;;15.25;75.91;100614.07;126431;1102;101478;-77